sensor_id;sensor_type;location;lat;lon;timestamp;P1;durP1;ratioP1;P2;durP2;ratioP2
23402;SDS011;11874;48.228;11.684;2023-07-31T06:38:18;1.88;;;1.40;;
23402;SDS011;11874;48.228;11.684;2023-07-31T06:40:46;2.83;;;1.40;;
23402;SDS011;11874;48.228;11.684;2023-07-31T06:43:18;3.15;;;1.50;;
23402;SDS011;11874;48.228;11.684;2023-07-31T06:45:46;2.17;;;1.48;;
23402;SDS011;11874;48.228;11.684;2023-07-31T06:48:16;2.50;;;1.55;;
23402;SDS011;11874;48.228;11.684;2023-07-31T06:50:46;2.30;;;1.70;;
23402;SDS011;11874;48.228;11.684;2023-07-31T06:53:14;4.85;;;1.55;;
23402;SDS011;11874;48.228;11.684;2023-07-31T06:55:43;4.60;;;1.50;;
23402;SDS011;11874;48.228;11.684;2023-07-31T06:58:12;4.90;;;1.40;;
23402;SDS011;11874;48.228;11.684;2023-07-31T07:00:42;2.63;;;1.50;;
23402;SDS011;11874;48.228;11.684;2023-07-31T07:03:11;2.85;;;1.38;;
23402;SDS011;11874;48.228;11.684;2023-07-31T07:05:41;3.22;;;1.40;;
23402;SDS011;11874;48.228;11.684;2023-07-31T07:08:09;2.45;;;1.38;;
23402;SDS011;11874;48.228;11.684;2023-07-31T07:10:37;1.73;;;1.20;;
23402;SDS011;11874;48.228;11.684;2023-07-31T07:13:06;1.13;;;1.02;;
23402;SDS011;11874;48.228;11.684;2023-07-31T07:15:35;2.97;;;1.05;;
23402;SDS011;11874;48.228;11.684;2023-07-31T07:18:03;1.30;;;1.15;;
23402;SDS011;11874;48.228;11.684;2023-07-31T07:20:31;5.95;;;1.20;;
23402;SDS011;11874;48.228;11.684;2023-07-31T07:22:59;2.42;;;1.30;;
23402;SDS011;11874;48.228;11.684;2023-07-31T07:25:27;2.65;;;1.45;;
23402;SDS011;11874;48.228;11.684;2023-07-31T07:27:55;1.88;;;1.45;;
23402;SDS011;11874;48.228;11.684;2023-07-31T07:30:28;3.15;;;1.60;;
23402;SDS011;11874;48.228;11.684;2023-07-31T07:32:56;2.28;;;1.40;;
23402;SDS011;11874;48.228;11.684;2023-07-31T07:35:24;2.38;;;1.33;;
23402;SDS011;11874;48.228;11.684;2023-07-31T07:37:52;3.83;;;2.03;;
23402;SDS011;11874;48.228;11.684;2023-07-31T07:40:23;2.67;;;1.30;;
23402;SDS011;11874;48.228;11.684;2023-07-31T07:42:51;2.38;;;1.30;;
23402;SDS011;11874;48.228;11.684;2023-07-31T07:45:20;2.67;;;1.35;;
23402;SDS011;11874;48.228;11.684;2023-07-31T07:47:49;2.95;;;1.50;;
23402;SDS011;11874;48.228;11.684;2023-07-31T07:50:18;2.70;;;1.45;;
23402;SDS011;11874;48.228;11.684;2023-07-31T07:52:47;6.93;;;1.92;;
23402;SDS011;11874;48.228;11.684;2023-07-31T07:55:17;1.48;;;0.95;;
23402;SDS011;11874;48.228;11.684;2023-07-31T07:57:45;2.28;;;1.40;;
23402;SDS011;11874;48.228;11.684;2023-07-31T08:00:16;3.78;;;1.60;;
23402;SDS011;11874;48.228;11.684;2023-07-31T08:02:44;4.15;;;1.30;;
23402;SDS011;11874;48.228;11.684;2023-07-31T08:05:17;2.40;;;1.20;;
23402;SDS011;11874;48.228;11.684;2023-07-31T08:07:45;2.13;;;1.40;;
23402;SDS011;11874;48.228;11.684;2023-07-31T08:10:15;3.00;;;1.40;;
23402;SDS011;11874;48.228;11.684;2023-07-31T08:12:43;2.08;;;1.23;;
23402;SDS011;11874;48.228;11.684;2023-07-31T08:15:11;2.58;;;1.63;;
23402;SDS011;11874;48.228;11.684;2023-07-31T08:17:39;3.70;;;1.70;;
23402;SDS011;11874;48.228;11.684;2023-07-31T08:20:07;2.05;;;1.30;;
23402;SDS011;11874;48.228;11.684;2023-07-31T08:22:38;4.93;;;1.40;;
23402;SDS011;11874;48.228;11.684;2023-07-31T08:25:07;1.88;;;1.40;;
23402;SDS011;11874;48.228;11.684;2023-07-31T08:27:35;3.22;;;1.40;;
23402;SDS011;11874;48.228;11.684;2023-07-31T08:30:04;2.25;;;1.50;;
23402;SDS011;11874;48.228;11.684;2023-07-31T08:32:35;3.92;;;1.42;;
23402;SDS011;11874;48.228;11.684;2023-07-31T08:35:04;2.95;;;1.52;;
23402;SDS011;11874;48.228;11.684;2023-07-31T08:37:32;2.47;;;1.30;;
23402;SDS011;11874;48.228;11.684;2023-07-31T08:40:02;1.65;;;1.20;;
23402;SDS011;11874;48.228;11.684;2023-07-31T08:42:31;2.28;;;1.30;;
23402;SDS011;11874;48.228;11.684;2023-07-31T08:44:59;1.92;;;1.23;;
23402;SDS011;11874;48.228;11.684;2023-07-31T08:47:33;2.88;;;1.00;;
23402;SDS011;11874;48.228;11.684;2023-07-31T08:50:02;3.15;;;1.30;;
23402;SDS011;11874;48.228;11.684;2023-07-31T08:52:32;2.40;;;1.45;;
23402;SDS011;11874;48.228;11.684;2023-07-31T08:55:02;2.42;;;1.10;;
23402;SDS011;11874;48.228;11.684;2023-07-31T08:57:30;3.97;;;1.48;;
23402;SDS011;11874;48.228;11.684;2023-07-31T09:00:01;2.33;;;1.30;;
23402;SDS011;11874;48.228;11.684;2023-07-31T09:02:34;1.20;;;1.10;;
23402;SDS011;11874;48.228;11.684;2023-07-31T09:05:05;1.15;;;1.00;;
23402;SDS011;11874;48.228;11.684;2023-07-31T09:07:35;2.67;;;1.45;;
23402;SDS011;11874;48.228;11.684;2023-07-31T09:10:05;2.97;;;1.30;;
23402;SDS011;11874;48.228;11.684;2023-07-31T09:12:34;2.40;;;1.33;;
23402;SDS011;11874;48.228;11.684;2023-07-31T09:15:06;1.90;;;1.40;;
23402;SDS011;11874;48.228;11.684;2023-07-31T09:17:46;2.65;;;1.17;;
23402;SDS011;11874;48.228;11.684;2023-07-31T09:20:17;2.47;;;1.43;;
23402;SDS011;11874;48.228;11.684;2023-07-31T09:22:48;1.90;;;1.02;;
23402;SDS011;11874;48.228;11.684;2023-07-31T09:25:18;4.30;;;1.52;;
23402;SDS011;11874;48.228;11.684;2023-07-31T09:27:48;3.35;;;1.00;;
23402;SDS011;11874;48.228;11.684;2023-07-31T09:30:17;3.33;;;1.25;;
23402;SDS011;11874;48.228;11.684;2023-07-31T09:32:47;3.55;;;1.40;;
23402;SDS011;11874;48.228;11.684;2023-07-31T09:35:20;1.50;;;1.10;;
23402;SDS011;11874;48.228;11.684;2023-07-31T09:37:50;2.47;;;1.30;;
23402;SDS011;11874;48.228;11.684;2023-07-31T09:40:27;2.95;;;1.52;;
23402;SDS011;11874;48.228;11.684;2023-07-31T09:42:56;2.10;;;1.42;;
23402;SDS011;11874;48.228;11.684;2023-07-31T09:45:25;4.65;;;1.40;;
23402;SDS011;11874;48.228;11.684;2023-07-31T09:50:37;1.33;;;1.15;;
23402;SDS011;11874;48.228;11.684;2023-07-31T09:53:07;1.85;;;1.35;;
23402;SDS011;11874;48.228;11.684;2023-07-31T09:55:42;3.08;;;1.52;;
23402;SDS011;11874;48.228;11.684;2023-07-31T09:58:13;3.78;;;1.27;;
23402;SDS011;11874;48.228;11.684;2023-07-31T10:00:41;1.45;;;1.30;;
23402;SDS011;11874;48.228;11.684;2023-07-31T10:03:11;1.85;;;1.23;;
23402;SDS011;11874;48.228;11.684;2023-07-31T10:08:11;6.03;;;1.60;;
23402;SDS011;11874;48.228;11.684;2023-07-31T10:13:12;2.47;;;1.23;;
23402;SDS011;11874;48.228;11.684;2023-07-31T10:15:43;3.30;;;1.50;;
23402;SDS011;11874;48.228;11.684;2023-07-31T10:18:12;5.78;;;1.40;;
23402;SDS011;11874;48.228;11.684;2023-07-31T10:20:42;2.88;;;1.65;;
23402;SDS011;11874;48.228;11.684;2023-07-31T10:23:11;1.73;;;1.20;;
23402;SDS011;11874;48.228;11.684;2023-07-31T10:25:40;3.10;;;1.50;;
23402;SDS011;11874;48.228;11.684;2023-07-31T10:28:11;2.10;;;1.20;;
23402;SDS011;11874;48.228;11.684;2023-07-31T10:30:39;1.83;;;1.10;;
23402;SDS011;11874;48.228;11.684;2023-07-31T10:33:08;2.30;;;1.42;;
23402;SDS011;11874;48.228;11.684;2023-07-31T10:35:39;2.50;;;1.35;;
23402;SDS011;11874;48.228;11.684;2023-07-31T10:38:11;3.13;;;1.47;;
23402;SDS011;11874;48.228;11.684;2023-07-31T10:40:40;2.25;;;1.30;;
23402;SDS011;11874;48.228;11.684;2023-07-31T10:43:08;3.53;;;1.50;;
23402;SDS011;11874;48.228;11.684;2023-07-31T10:45:50;2.08;;;1.40;;
23402;SDS011;11874;48.228;11.684;2023-07-31T10:48:18;3.97;;;1.42;;
23402;SDS011;11874;48.228;11.684;2023-07-31T10:50:47;4.10;;;1.60;;
23402;SDS011;11874;48.228;11.684;2023-07-31T10:53:23;1.90;;;1.30;;
23402;SDS011;11874;48.228;11.684;2023-07-31T10:55:52;2.30;;;1.45;;
23402;SDS011;11874;48.228;11.684;2023-07-31T10:58:26;2.75;;;1.40;;
23402;SDS011;11874;48.228;11.684;2023-07-31T11:00:56;1.55;;;1.30;;
23402;SDS011;11874;48.228;11.684;2023-07-31T11:03:25;6.07;;;1.70;;
23402;SDS011;11874;48.228;11.684;2023-07-31T11:05:59;2.58;;;1.60;;
23402;SDS011;11874;48.228;11.684;2023-07-31T11:08:30;3.75;;;1.60;;
23402;SDS011;11874;48.228;11.684;2023-07-31T11:11:06;2.70;;;1.40;;
23402;SDS011;11874;48.228;11.684;2023-07-31T11:13:43;3.20;;;1.48;;
23402;SDS011;11874;48.228;11.684;2023-07-31T11:16:13;2.75;;;1.52;;
23402;SDS011;11874;48.228;11.684;2023-07-31T11:18:44;3.25;;;1.33;;
23402;SDS011;11874;48.228;11.684;2023-07-31T11:21:14;1.97;;;1.30;;
23402;SDS011;11874;48.228;11.684;2023-07-31T11:23:45;3.17;;;1.30;;
23402;SDS011;11874;48.228;11.684;2023-07-31T11:26:14;3.35;;;1.50;;
23402;SDS011;11874;48.228;11.684;2023-07-31T11:28:45;2.13;;;1.23;;
23402;SDS011;11874;48.228;11.684;2023-07-31T11:31:14;1.88;;;1.27;;
23402;SDS011;11874;48.228;11.684;2023-07-31T11:33:45;2.45;;;1.42;;
23402;SDS011;11874;48.228;11.684;2023-07-31T11:36:17;2.35;;;1.38;;
23402;SDS011;11874;48.228;11.684;2023-07-31T11:38:46;4.55;;;1.70;;
23402;SDS011;11874;48.228;11.684;2023-07-31T11:41:15;3.05;;;1.65;;
23402;SDS011;11874;48.228;11.684;2023-07-31T11:43:45;2.33;;;1.40;;
23402;SDS011;11874;48.228;11.684;2023-07-31T11:46:14;3.65;;;1.75;;
23402;SDS011;11874;48.228;11.684;2023-07-31T11:48:42;2.33;;;1.70;;
23402;SDS011;11874;48.228;11.684;2023-07-31T11:51:11;1.73;;;1.30;;
23402;SDS011;11874;48.228;11.684;2023-07-31T11:53:42;2.35;;;1.52;;
23402;SDS011;11874;48.228;11.684;2023-07-31T11:56:13;1.95;;;1.33;;
23402;SDS011;11874;48.228;11.684;2023-07-31T11:58:43;2.17;;;1.45;;
23402;SDS011;11874;48.228;11.684;2023-07-31T12:01:15;2.20;;;1.40;;
23402;SDS011;11874;48.228;11.684;2023-07-31T12:03:48;1.52;;;1.35;;
23402;SDS011;11874;48.228;11.684;2023-07-31T12:06:18;3.40;;;1.30;;
23402;SDS011;11874;48.228;11.684;2023-07-31T12:08:47;2.17;;;1.35;;
23402;SDS011;11874;48.228;11.684;2023-07-31T12:11:18;2.47;;;1.58;;
23402;SDS011;11874;48.228;11.684;2023-07-31T12:13:48;2.80;;;1.50;;
23402;SDS011;11874;48.228;11.684;2023-07-31T12:16:16;3.55;;;1.80;;
23402;SDS011;11874;48.228;11.684;2023-07-31T12:18:46;2.25;;;1.70;;
23402;SDS011;11874;48.228;11.684;2023-07-31T12:21:17;2.25;;;1.33;;
23402;SDS011;11874;48.228;11.684;2023-07-31T12:23:47;3.83;;;1.60;;
23402;SDS011;11874;48.228;11.684;2023-07-31T12:26:15;2.58;;;1.50;;
23402;SDS011;11874;48.228;11.684;2023-07-31T12:28:44;1.50;;;1.33;;
23402;SDS011;11874;48.228;11.684;2023-07-31T12:31:15;2.17;;;1.23;;
23402;SDS011;11874;48.228;11.684;2023-07-31T12:33:44;2.35;;;1.42;;
23402;SDS011;11874;48.228;11.684;2023-07-31T12:36:14;2.22;;;1.40;;
23402;SDS011;11874;48.228;11.684;2023-07-31T12:38:46;3.35;;;1.50;;
23402;SDS011;11874;48.228;11.684;2023-07-31T12:41:14;4.43;;;1.50;;
23402;SDS011;11874;48.228;11.684;2023-07-31T12:43:43;2.22;;;1.38;;
23402;SDS011;11874;48.228;11.684;2023-07-31T12:46:12;4.25;;;1.38;;
23402;SDS011;11874;48.228;11.684;2023-07-31T12:48:43;3.50;;;1.70;;
23402;SDS011;11874;48.228;11.684;2023-07-31T12:51:12;5.35;;;1.58;;
23402;SDS011;11874;48.228;11.684;2023-07-31T12:53:41;3.53;;;1.45;;
23402;SDS011;11874;48.228;11.684;2023-07-31T12:56:10;3.03;;;1.20;;
23402;SDS011;11874;48.228;11.684;2023-07-31T12:58:38;2.55;;;1.50;;
23402;SDS011;11874;48.228;11.684;2023-07-31T13:01:06;2.38;;;1.67;;
23402;SDS011;11874;48.228;11.684;2023-07-31T13:03:36;1.95;;;1.40;;
23402;SDS011;11874;48.228;11.684;2023-07-31T13:06:04;3.90;;;1.67;;
23402;SDS011;11874;48.228;11.684;2023-07-31T13:08:33;3.33;;;1.67;;
23402;SDS011;11874;48.228;11.684;2023-07-31T13:11:02;2.13;;;1.20;;
23402;SDS011;11874;48.228;11.684;2023-07-31T13:13:31;2.03;;;1.30;;
23402;SDS011;11874;48.228;11.684;2023-07-31T13:15:59;2.47;;;1.40;;
23402;SDS011;11874;48.228;11.684;2023-07-31T13:18:27;1.65;;;1.33;;
23402;SDS011;11874;48.228;11.684;2023-07-31T13:20:56;2.97;;;1.40;;
23402;SDS011;11874;48.228;11.684;2023-07-31T13:23:24;2.70;;;1.05;;
23402;SDS011;11874;48.228;11.684;2023-07-31T13:25:52;2.60;;;1.70;;
23402;SDS011;11874;48.228;11.684;2023-07-31T13:28:21;1.98;;;1.27;;
23402;SDS011;11874;48.228;11.684;2023-07-31T13:30:49;2.10;;;1.50;;
23402;SDS011;11874;48.228;11.684;2023-07-31T13:33:17;2.78;;;1.52;;
23402;SDS011;11874;48.228;11.684;2023-07-31T13:36:02;3.75;;;1.60;;
23402;SDS011;11874;48.228;11.684;2023-07-31T13:38:30;3.10;;;1.50;;
23402;SDS011;11874;48.228;11.684;2023-07-31T13:40:58;2.20;;;1.40;;
23402;SDS011;11874;48.228;11.684;2023-07-31T13:43:26;2.05;;;1.52;;
23402;SDS011;11874;48.228;11.684;2023-07-31T13:45:57;2.38;;;1.50;;
23402;SDS011;11874;48.228;11.684;2023-07-31T13:48:30;1.83;;;1.50;;
23402;SDS011;11874;48.228;11.684;2023-07-31T13:51:07;1.42;;;1.10;;
23402;SDS011;11874;48.228;11.684;2023-07-31T13:53:35;4.90;;;1.55;;
23402;SDS011;11874;48.228;11.684;2023-07-31T13:56:06;3.03;;;1.33;;
23402;SDS011;11874;48.228;11.684;2023-07-31T13:58:38;4.47;;;1.50;;
23402;SDS011;11874;48.228;11.684;2023-07-31T14:01:07;3.13;;;1.30;;
23402;SDS011;11874;48.228;11.684;2023-07-31T14:03:37;3.88;;;1.02;;
23402;SDS011;11874;48.228;11.684;2023-07-31T14:06:05;2.20;;;1.55;;
23402;SDS011;11874;48.228;11.684;2023-07-31T14:08:35;3.05;;;1.52;;
23402;SDS011;11874;48.228;11.684;2023-07-31T14:11:02;3.13;;;1.50;;
23402;SDS011;11874;48.228;11.684;2023-07-31T14:13:30;2.42;;;1.50;;
23402;SDS011;11874;48.228;11.684;2023-07-31T14:15:58;3.15;;;1.60;;
23402;SDS011;11874;48.228;11.684;2023-07-31T14:18:31;3.17;;;1.40;;
23402;SDS011;11874;48.228;11.684;2023-07-31T14:21:01;1.83;;;1.33;;
23402;SDS011;11874;48.228;11.684;2023-07-31T14:23:30;1.90;;;1.27;;
23402;SDS011;11874;48.228;11.684;2023-07-31T14:26:00;2.92;;;1.77;;
23402;SDS011;11874;48.228;11.684;2023-07-31T14:28:29;2.53;;;1.58;;
23402;SDS011;11874;48.228;11.684;2023-07-31T14:30:58;3.80;;;1.60;;
23402;SDS011;11874;48.228;11.684;2023-07-31T14:33:26;2.78;;;1.48;;
23402;SDS011;11874;48.228;11.684;2023-07-31T14:35:57;3.33;;;1.60;;
23402;SDS011;11874;48.228;11.684;2023-07-31T14:38:27;2.40;;;1.98;;
23402;SDS011;11874;48.228;11.684;2023-07-31T14:40:56;4.82;;;1.70;;
23402;SDS011;11874;48.228;11.684;2023-07-31T14:43:25;2.65;;;1.50;;
23402;SDS011;11874;48.228;11.684;2023-07-31T14:45:55;2.97;;;1.67;;
23402;SDS011;11874;48.228;11.684;2023-07-31T14:48:26;3.22;;;1.80;;
23402;SDS011;11874;48.228;11.684;2023-07-31T14:50:57;1.70;;;1.50;;
23402;SDS011;11874;48.228;11.684;2023-07-31T14:53:26;2.55;;;1.60;;
23402;SDS011;11874;48.228;11.684;2023-07-31T14:55:54;2.28;;;1.70;;
23402;SDS011;11874;48.228;11.684;2023-07-31T14:58:23;2.20;;;1.58;;
23402;SDS011;11874;48.228;11.684;2023-07-31T15:00:59;3.15;;;2.00;;
23402;SDS011;11874;48.228;11.684;2023-07-31T15:03:27;3.08;;;1.70;;
23402;SDS011;11874;48.228;11.684;2023-07-31T15:05:56;2.03;;;1.40;;
23402;SDS011;11874;48.228;11.684;2023-07-31T15:08:25;2.70;;;1.58;;
23402;SDS011;11874;48.228;11.684;2023-07-31T15:10:56;2.17;;;1.80;;
23402;SDS011;11874;48.228;11.684;2023-07-31T15:13:26;2.75;;;1.70;;
23402;SDS011;11874;48.228;11.684;2023-07-31T15:15:54;2.03;;;1.58;;
23402;SDS011;11874;48.228;11.684;2023-07-31T15:18:25;2.60;;;1.88;;
23402;SDS011;11874;48.228;11.684;2023-07-31T15:20:56;3.60;;;1.70;;
23402;SDS011;11874;48.228;11.684;2023-07-31T15:23:25;4.20;;;3.00;;
23402;SDS011;11874;48.228;11.684;2023-07-31T15:25:56;2.42;;;1.67;;
23402;SDS011;11874;48.228;11.684;2023-07-31T15:28:27;2.47;;;1.58;;
23402;SDS011;11874;48.228;11.684;2023-07-31T15:30:55;4.38;;;1.67;;
23402;SDS011;11874;48.228;11.684;2023-07-31T15:33:25;1.77;;;1.50;;
23402;SDS011;11874;48.228;11.684;2023-07-31T15:35:56;2.38;;;1.52;;
23402;SDS011;11874;48.228;11.684;2023-07-31T15:38:26;3.15;;;1.85;;
23402;SDS011;11874;48.228;11.684;2023-07-31T15:40:55;2.67;;;1.65;;
23402;SDS011;11874;48.228;11.684;2023-07-31T15:43:23;3.97;;;1.80;;
23402;SDS011;11874;48.228;11.684;2023-07-31T15:45:54;2.63;;;1.60;;
23402;SDS011;11874;48.228;11.684;2023-07-31T15:48:24;2.78;;;1.60;;
23402;SDS011;11874;48.228;11.684;2023-07-31T15:50:58;1.85;;;1.55;;
23402;SDS011;11874;48.228;11.684;2023-07-31T15:53:28;2.20;;;1.83;;
23402;SDS011;11874;48.228;11.684;2023-07-31T15:55:57;4.78;;;1.95;;
23402;SDS011;11874;48.228;11.684;2023-07-31T15:58:26;2.22;;;1.40;;
23402;SDS011;11874;48.228;11.684;2023-07-31T16:00:56;3.78;;;1.92;;
23402;SDS011;11874;48.228;11.684;2023-07-31T16:03:25;2.30;;;1.60;;
23402;SDS011;11874;48.228;11.684;2023-07-31T16:05:53;3.13;;;1.58;;
23402;SDS011;11874;48.228;11.684;2023-07-31T16:08:21;2.58;;;1.63;;
23402;SDS011;11874;48.228;11.684;2023-07-31T16:10:50;3.88;;;1.90;;
23402;SDS011;11874;48.228;11.684;2023-07-31T16:13:19;4.88;;;2.25;;
23402;SDS011;11874;48.228;11.684;2023-07-31T16:15:47;2.45;;;1.67;;
23402;SDS011;11874;48.228;11.684;2023-07-31T16:18:19;3.38;;;1.60;;
23402;SDS011;11874;48.228;11.684;2023-07-31T16:20:47;2.85;;;1.90;;
23402;SDS011;11874;48.228;11.684;2023-07-31T16:23:16;2.67;;;1.58;;
23402;SDS011;11874;48.228;11.684;2023-07-31T16:25:44;3.85;;;2.00;;
23402;SDS011;11874;48.228;11.684;2023-07-31T16:28:12;2.53;;;1.75;;
23402;SDS011;11874;48.228;11.684;2023-07-31T16:30:43;3.95;;;1.58;;
23402;SDS011;11874;48.228;11.684;2023-07-31T16:33:12;2.05;;;1.70;;
23402;SDS011;11874;48.228;11.684;2023-07-31T16:35:43;2.38;;;1.80;;
23402;SDS011;11874;48.228;11.684;2023-07-31T16:38:13;3.65;;;1.92;;
23402;SDS011;11874;48.228;11.684;2023-07-31T16:40:43;5.32;;;2.00;;
23402;SDS011;11874;48.228;11.684;2023-07-31T16:43:13;6.05;;;1.90;;
23402;SDS011;11874;48.228;11.684;2023-07-31T16:45:41;2.67;;;1.92;;
23402;SDS011;11874;48.228;11.684;2023-07-31T16:48:09;3.92;;;2.15;;
23402;SDS011;11874;48.228;11.684;2023-07-31T16:50:37;3.55;;;1.77;;
23402;SDS011;11874;48.228;11.684;2023-07-31T16:53:06;2.97;;;1.65;;
23402;SDS011;11874;48.228;11.684;2023-07-31T16:55:36;5.22;;;2.20;;
23402;SDS011;11874;48.228;11.684;2023-07-31T16:58:04;2.38;;;1.90;;
23402;SDS011;11874;48.228;11.684;2023-07-31T17:00:33;3.05;;;2.15;;
23402;SDS011;11874;48.228;11.684;2023-07-31T17:03:01;3.83;;;2.25;;
23402;SDS011;11874;48.228;11.684;2023-07-31T17:05:31;2.97;;;2.00;;
23402;SDS011;11874;48.228;11.684;2023-07-31T17:08:02;6.20;;;2.25;;
23402;SDS011;11874;48.228;11.684;2023-07-31T17:10:33;3.15;;;1.90;;
23402;SDS011;11874;48.228;11.684;2023-07-31T17:13:02;4.63;;;2.10;;
23402;SDS011;11874;48.228;11.684;2023-07-31T17:15:30;4.43;;;2.00;;
23402;SDS011;11874;48.228;11.684;2023-07-31T17:17:57;2.88;;;1.88;;
23402;SDS011;11874;48.228;11.684;2023-07-31T17:20:26;3.72;;;1.90;;
23402;SDS011;11874;48.228;11.684;2023-07-31T17:22:54;3.60;;;2.10;;
23402;SDS011;11874;48.228;11.684;2023-07-31T17:25:23;4.00;;;2.50;;
23402;SDS011;11874;48.228;11.684;2023-07-31T17:27:59;3.40;;;2.17;;
23402;SDS011;11874;48.228;11.684;2023-07-31T17:30:27;4.88;;;1.80;;
23402;SDS011;11874;48.228;11.684;2023-07-31T17:32:55;5.68;;;2.30;;
23402;SDS011;11874;48.228;11.684;2023-07-31T17:35:26;5.72;;;2.00;;
23402;SDS011;11874;48.228;11.684;2023-07-31T17:37:55;3.05;;;2.10;;
23402;SDS011;11874;48.228;11.684;2023-07-31T17:40:25;3.72;;;2.03;;
23402;SDS011;11874;48.228;11.684;2023-07-31T17:42:58;5.50;;;2.00;;
23402;SDS011;11874;48.228;11.684;2023-07-31T17:45:26;3.70;;;1.90;;
23402;SDS011;11874;48.228;11.684;2023-07-31T17:47:57;2.55;;;1.85;;
23402;SDS011;11874;48.228;11.684;2023-07-31T17:50:27;2.70;;;1.70;;
23402;SDS011;11874;48.228;11.684;2023-07-31T17:52:57;6.15;;;1.88;;
23402;SDS011;11874;48.228;11.684;2023-07-31T17:55:25;3.63;;;1.98;;
23402;SDS011;11874;48.228;11.684;2023-07-31T17:57:53;3.28;;;2.33;;
23402;SDS011;11874;48.228;11.684;2023-07-31T18:00:23;3.22;;;2.00;;
23402;SDS011;11874;48.228;11.684;2023-07-31T18:02:51;3.58;;;1.98;;
23402;SDS011;11874;48.228;11.684;2023-07-31T18:05:19;4.03;;;2.03;;
23402;SDS011;11874;48.228;11.684;2023-07-31T18:07:49;2.97;;;1.90;;
23402;SDS011;11874;48.228;11.684;2023-07-31T18:10:17;2.63;;;1.65;;
23402;SDS011;11874;48.228;11.684;2023-07-31T18:12:47;4.28;;;1.95;;
23402;SDS011;11874;48.228;11.684;2023-07-31T18:15:15;3.15;;;2.10;;
23402;SDS011;11874;48.228;11.684;2023-07-31T18:17:45;3.13;;;1.85;;
23402;SDS011;11874;48.228;11.684;2023-07-31T18:20:13;4.95;;;2.20;;
23402;SDS011;11874;48.228;11.684;2023-07-31T18:22:41;3.42;;;2.15;;
23402;SDS011;11874;48.228;11.684;2023-07-31T18:25:10;4.78;;;1.90;;
23402;SDS011;11874;48.228;11.684;2023-07-31T18:27:39;2.25;;;1.60;;
23402;SDS011;11874;48.228;11.684;2023-07-31T18:30:09;4.53;;;2.10;;
23402;SDS011;11874;48.228;11.684;2023-07-31T18:32:39;3.38;;;2.30;;
23402;SDS011;11874;48.228;11.684;2023-07-31T18:35:09;6.00;;;2.30;;
23402;SDS011;11874;48.228;11.684;2023-07-31T18:37:37;4.00;;;2.22;;
23402;SDS011;11874;48.228;11.684;2023-07-31T18:40:05;4.45;;;2.17;;
23402;SDS011;11874;48.228;11.684;2023-07-31T18:42:34;4.55;;;1.92;;
23402;SDS011;11874;48.228;11.684;2023-07-31T18:45:04;3.95;;;2.22;;
23402;SDS011;11874;48.228;11.684;2023-07-31T18:47:33;4.72;;;2.58;;
23402;SDS011;11874;48.228;11.684;2023-07-31T18:50:02;5.45;;;2.00;;
23402;SDS011;11874;48.228;11.684;2023-07-31T18:52:32;3.13;;;1.98;;
23402;SDS011;11874;48.228;11.684;2023-07-31T18:55:02;3.22;;;2.00;;
23402;SDS011;11874;48.228;11.684;2023-07-31T18:57:30;2.38;;;1.80;;
23402;SDS011;11874;48.228;11.684;2023-07-31T18:59:58;5.18;;;2.63;;
23402;SDS011;11874;48.228;11.684;2023-07-31T19:02:26;4.07;;;2.08;;
23402;SDS011;11874;48.228;11.684;2023-07-31T19:04:54;4.65;;;2.35;;
23402;SDS011;11874;48.228;11.684;2023-07-31T19:07:22;4.18;;;2.40;;
23402;SDS011;11874;48.228;11.684;2023-07-31T19:09:52;4.55;;;2.50;;
23402;SDS011;11874;48.228;11.684;2023-07-31T19:12:40;7.35;;;2.38;;
23402;SDS011;11874;48.228;11.684;2023-07-31T19:15:09;8.43;;;4.20;;
23402;SDS011;11874;48.228;11.684;2023-07-31T19:17:38;6.13;;;3.47;;
23402;SDS011;11874;48.228;11.684;2023-07-31T19:20:07;5.22;;;3.00;;
23402;SDS011;11874;48.228;11.684;2023-07-31T19:22:35;5.10;;;3.20;;
23402;SDS011;11874;48.228;11.684;2023-07-31T19:25:06;5.35;;;2.97;;
23402;SDS011;11874;48.228;11.684;2023-07-31T19:27:35;6.50;;;2.70;;
23402;SDS011;11874;48.228;11.684;2023-07-31T19:30:03;5.43;;;1.90;;
23402;SDS011;11874;48.228;11.684;2023-07-31T19:32:31;2.90;;;2.30;;
23402;SDS011;11874;48.228;11.684;2023-07-31T19:35:00;7.35;;;2.38;;
23402;SDS011;11874;48.228;11.684;2023-07-31T19:37:29;3.33;;;2.28;;
23402;SDS011;11874;48.228;11.684;2023-07-31T19:39:58;3.47;;;2.30;;
23402;SDS011;11874;48.228;11.684;2023-07-31T19:42:27;5.60;;;2.53;;
23402;SDS011;11874;48.228;11.684;2023-07-31T19:44:58;5.40;;;2.53;;
23402;SDS011;11874;48.228;11.684;2023-07-31T19:47:27;5.25;;;2.90;;
23402;SDS011;11874;48.228;11.684;2023-07-31T19:49:56;5.10;;;2.70;;
23402;SDS011;11874;48.228;11.684;2023-07-31T19:52:25;3.92;;;2.50;;
23402;SDS011;11874;48.228;11.684;2023-07-31T19:54:53;4.22;;;2.22;;
23402;SDS011;11874;48.228;11.684;2023-07-31T19:57:22;3.92;;;2.20;;
23402;SDS011;11874;48.228;11.684;2023-07-31T19:59:51;4.45;;;2.42;;
23402;SDS011;11874;48.228;11.684;2023-07-31T20:02:19;4.13;;;2.50;;
23402;SDS011;11874;48.228;11.684;2023-07-31T20:04:49;5.47;;;2.95;;
23402;SDS011;11874;48.228;11.684;2023-07-31T20:07:17;4.90;;;2.58;;
23402;SDS011;11874;48.228;11.684;2023-07-31T20:09:45;3.90;;;2.53;;
23402;SDS011;11874;48.228;11.684;2023-07-31T20:12:13;5.28;;;2.70;;
23402;SDS011;11874;48.228;11.684;2023-07-31T20:14:41;5.97;;;3.00;;
23402;SDS011;11874;48.228;11.684;2023-07-31T20:17:10;3.47;;;2.55;;
23402;SDS011;11874;48.228;11.684;2023-07-31T20:19:39;5.85;;;2.60;;
23402;SDS011;11874;48.228;11.684;2023-07-31T20:22:10;5.63;;;3.00;;
23402;SDS011;11874;48.228;11.684;2023-07-31T20:24:37;3.53;;;2.78;;
23402;SDS011;11874;48.228;11.684;2023-07-31T20:27:06;4.70;;;2.47;;
23402;SDS011;11874;48.228;11.684;2023-07-31T20:29:34;4.25;;;2.88;;
23402;SDS011;11874;48.228;11.684;2023-07-31T20:32:06;3.83;;;2.28;;
23402;SDS011;11874;48.228;11.684;2023-07-31T20:34:36;3.63;;;2.35;;
23402;SDS011;11874;48.228;11.684;2023-07-31T20:37:04;4.03;;;2.17;;
23402;SDS011;11874;48.228;11.684;2023-07-31T20:39:34;3.42;;;2.25;;
23402;SDS011;11874;48.228;11.684;2023-07-31T20:42:02;5.72;;;2.17;;
23402;SDS011;11874;48.228;11.684;2023-07-31T20:44:32;6.65;;;2.50;;
23402;SDS011;11874;48.228;11.684;2023-07-31T20:47:00;5.18;;;2.55;;
23402;SDS011;11874;48.228;11.684;2023-07-31T20:49:28;3.08;;;2.58;;
23402;SDS011;11874;48.228;11.684;2023-07-31T20:51:57;6.60;;;2.50;;
23402;SDS011;11874;48.228;11.684;2023-07-31T20:54:26;5.65;;;2.83;;
23402;SDS011;11874;48.228;11.684;2023-07-31T20:56:54;6.43;;;2.40;;
